createdAt,value
2018-02-25T00:00:54.093Z,19
2018-02-25T00:01:52.628Z,19
2018-02-25T00:02:51.200Z,19
2018-02-25T00:03:49.775Z,19
2018-02-25T00:04:48.348Z,19
2018-02-25T00:05:46.922Z,19
2018-02-25T00:06:45.602Z,19
2018-02-25T00:07:44.274Z,19
2018-02-25T00:08:42.763Z,19
2018-02-25T00:09:41.420Z,19
2018-02-25T00:10:39.889Z,19
2018-02-25T00:11:38.463Z,19
2018-02-25T00:12:37.155Z,19
2018-02-25T00:13:35.712Z,19
2018-02-25T00:14:34.285Z,19
2018-02-25T00:15:32.857Z,19
2018-02-25T00:16:31.434Z,19
2018-02-25T00:17:30.009Z,19
2018-02-25T00:18:28.699Z,19
2018-02-25T00:19:27.371Z,19
2018-02-25T00:20:25.826Z,19
2018-02-25T00:21:24.400Z,19
2018-02-25T00:22:22.975Z,18
2018-02-25T00:23:21.547Z,18
2018-02-25T00:24:20.223Z,18
2018-02-25T00:25:18.812Z,18
2018-02-25T00:26:17.370Z,18
2018-02-25T00:27:16.047Z,18
2018-02-25T00:28:14.516Z,18
2018-02-25T00:29:13.192Z,18
2018-02-25T00:30:11.764Z,18
2018-02-25T00:31:10.341Z,18
2018-02-25T00:32:08.910Z,18
2018-02-25T00:33:07.484Z,18
2018-02-25T00:34:06.057Z,18
2018-02-25T00:35:04.733Z,18
2018-02-25T00:36:03.408Z,18
2018-02-25T00:37:01.879Z,18
2018-02-25T00:38:00.453Z,18
2018-02-25T00:38:59.026Z,18
2018-02-25T00:39:57.602Z,18
2018-02-25T00:40:56.293Z,18
2018-02-25T00:41:54.848Z,18
2018-02-25T00:42:53.539Z,18
2018-02-25T00:43:52.011Z,18
2018-02-25T00:44:50.583Z,18
2018-02-25T00:45:49.144Z,18
2018-02-25T00:46:48.021Z,18
2018-02-25T00:47:46.408Z,18
2018-02-25T00:48:44.965Z,18
2018-02-25T00:49:43.638Z,18
2018-02-25T00:50:42.109Z,18
2018-02-25T00:51:40.683Z,18
2018-02-25T00:52:39.360Z,18
2018-02-25T00:53:37.951Z,18
2018-02-25T00:54:36.505Z,18
2018-02-25T00:55:35.078Z,18
2018-02-25T00:56:33.651Z,18
2018-02-25T00:57:32.223Z,18
2018-02-25T00:58:30.899Z,18
2018-02-25T00:59:29.472Z,18
2018-02-25T01:00:28.047Z,18
2018-02-25T01:01:27.051Z,18
2018-02-25T01:02:25.192Z,18
2018-02-25T01:03:23.869Z,18
2018-02-25T01:04:22.443Z,18
2018-02-25T01:05:21.031Z,18
2018-02-25T01:06:19.588Z,18
2018-02-25T01:07:18.161Z,18
2018-02-25T01:08:16.735Z,18
2018-02-25T01:09:15.412Z,18
2018-02-25T01:10:13.984Z,18
2018-02-25T01:11:12.558Z,18
2018-02-25T01:12:11.132Z,18
2018-02-25T01:13:09.720Z,18
2018-02-25T01:14:08.276Z,18
2018-02-25T01:15:06.952Z,18
2018-02-25T01:16:05.527Z,18
2018-02-25T01:17:04.099Z,18
2018-02-25T01:18:02.673Z,18
2018-02-25T01:19:01.261Z,18
2018-02-25T01:19:59.820Z,18
2018-02-25T01:20:58.510Z,18
2018-02-25T01:21:57.067Z,18
2018-02-25T01:22:55.643Z,18
2018-02-25T01:23:54.213Z,18
2018-02-25T01:24:52.786Z,18
2018-02-25T01:25:51.360Z,18
2018-02-25T01:26:50.037Z,18
2018-02-25T01:27:48.608Z,18
2018-02-25T01:28:47.182Z,18
2018-02-25T01:29:45.755Z,18
2018-02-25T01:30:44.328Z,18
2018-02-25T01:31:42.920Z,18
2018-02-25T01:32:41.588Z,18
2018-02-25T01:33:40.153Z,18
2018-02-25T01:34:38.729Z,18
2018-02-25T01:35:37.297Z,18
2018-02-25T01:36:35.871Z,18
2018-02-25T01:37:34.464Z,18
2018-02-25T01:38:33.120Z,18
2018-02-25T01:39:31.693Z,18
2018-02-25T01:40:30.266Z,18
2018-02-25T01:41:28.841Z,18
2018-02-25T01:42:27.443Z,18
2018-02-25T01:43:26.087Z,18
2018-02-25T01:44:24.661Z,18
2018-02-25T01:45:23.235Z,18
2018-02-25T01:46:21.809Z,18
2018-02-25T01:47:20.382Z,18
2018-02-25T01:48:18.953Z,18
2018-02-25T01:49:17.630Z,18
2018-02-25T01:50:16.203Z,18
2018-02-25T01:51:14.776Z,18
2018-02-25T01:52:13.348Z,18
2018-02-25T01:53:11.925Z,18
2018-02-25T01:54:10.497Z,18
2018-02-25T01:55:09.173Z,18
2018-02-25T01:56:07.746Z,18
2018-02-25T01:57:06.318Z,18
2018-02-25T01:58:04.892Z,18
2018-02-25T01:59:03.480Z,18
2018-02-25T02:00:02.038Z,18
2018-02-25T02:01:00.714Z,18
2018-02-25T02:01:59.287Z,18
2018-02-25T02:02:57.863Z,18
2018-02-25T02:03:56.434Z,17
2018-02-25T02:04:55.023Z,17
2018-02-25T02:05:53.683Z,17
2018-02-25T02:06:52.256Z,17
2018-02-25T02:07:50.828Z,17
2018-02-25T02:08:49.402Z,17
2018-02-25T02:09:47.974Z,17
2018-02-25T02:10:46.548Z,17
2018-02-25T02:11:45.342Z,17
2018-02-25T02:12:43.797Z,17
2018-02-25T02:13:42.372Z,17
2018-02-25T02:14:40.944Z,17
2018-02-25T02:15:39.516Z,17
2018-02-25T02:16:38.089Z,17
2018-02-25T02:17:36.766Z,17
2018-02-25T02:18:35.340Z,17
2018-02-25T02:19:33.913Z,17
2018-02-25T02:20:32.487Z,17
2018-02-25T02:21:31.059Z,17
2018-02-25T02:22:29.632Z,17
2018-02-25T02:23:28.310Z,17
2018-02-25T02:24:26.881Z,17
2018-02-25T02:25:25.455Z,17
2018-02-25T02:26:24.130Z,17
2018-02-25T02:27:22.602Z,17
2018-02-25T02:28:21.178Z,17
2018-02-25T02:29:19.853Z,17
2018-02-25T02:30:18.423Z,17
2018-02-25T02:31:17.014Z,17
2018-02-25T02:32:15.570Z,17
2018-02-25T02:33:14.143Z,17
2018-02-25T02:34:12.716Z,17
2018-02-25T02:35:11.392Z,17
2018-02-25T02:36:09.967Z,17
2018-02-25T02:37:08.564Z,17
2018-02-25T02:38:07.130Z,17
2018-02-25T02:39:05.810Z,17
2018-02-25T02:40:04.257Z,17
2018-02-25T02:41:02.933Z,17
2018-02-25T02:42:01.507Z,17
2018-02-25T02:43:00.088Z,17
2018-02-25T02:43:58.654Z,17
2018-02-25T02:44:57.225Z,17
2018-02-25T02:45:55.800Z,17
2018-02-25T02:46:54.476Z,17
2018-02-25T02:47:53.051Z,17
2018-02-25T02:48:51.622Z,17
2018-02-25T02:49:50.223Z,17
2018-02-25T02:50:48.766Z,17
2018-02-25T02:51:47.345Z,17
2018-02-25T02:52:46.018Z,17
2018-02-25T02:53:44.592Z,17
2018-02-25T02:54:43.164Z,17
2018-02-25T02:55:41.737Z,17
2018-02-25T02:56:40.311Z,17
2018-02-25T02:57:38.990Z,17
2018-02-25T02:58:37.561Z,17
2018-02-25T02:59:36.131Z,17
2018-02-25T03:00:34.707Z,17
2018-02-25T03:01:33.277Z,17
2018-02-25T03:02:31.855Z,17
2018-02-25T03:03:30.529Z,17
2018-02-25T03:04:29.107Z,17
2018-02-25T03:05:27.674Z,17
2018-02-25T03:06:26.249Z,17
2018-02-25T03:07:24.819Z,17
2018-02-25T03:08:23.393Z,17
2018-02-25T03:09:22.070Z,17
2018-02-25T03:10:20.643Z,17
2018-02-25T03:11:19.318Z,17
2018-02-25T03:12:17.789Z,17
2018-02-25T03:13:16.362Z,17
2018-02-25T03:14:15.039Z,17
2018-02-25T03:15:13.613Z,17
2018-02-25T03:16:12.287Z,17
2018-02-25T03:17:10.758Z,17
2018-02-25T03:18:09.330Z,17
2018-02-25T03:19:07.925Z,17
2018-02-25T03:20:06.475Z,17
2018-02-25T03:21:05.153Z,17
2018-02-25T03:22:03.725Z,17
2018-02-25T03:23:02.300Z,17
2018-02-25T03:24:00.873Z,17
2018-02-25T03:24:59.446Z,17
2018-02-25T03:25:58.023Z,17
2018-02-25T03:26:56.710Z,17
2018-02-25T03:27:55.267Z,17
2018-02-25T03:28:53.842Z,17
2018-02-25T03:29:52.418Z,17
2018-02-25T03:30:51.007Z,17
2018-02-25T03:31:49.663Z,17
2018-02-25T03:32:48.261Z,17
2018-02-25T03:33:46.809Z,17
2018-02-25T03:34:45.383Z,17
2018-02-25T03:35:43.957Z,17
2018-02-25T03:36:42.530Z,17
2018-02-25T03:37:41.205Z,17
2018-02-25T03:38:39.780Z,17
2018-02-25T03:39:38.455Z,17
2018-02-25T03:40:36.926Z,17
2018-02-25T03:41:35.496Z,17
2018-02-25T03:42:34.071Z,17
2018-02-25T03:43:32.748Z,17
2018-02-25T03:44:31.322Z,17
2018-02-25T03:45:29.893Z,17
2018-02-25T03:46:28.467Z,17
2018-02-25T03:47:27.039Z,17
2018-02-25T03:48:25.716Z,17
2018-02-25T03:49:24.415Z,17
2018-02-25T03:50:22.862Z,17
2018-02-25T03:51:21.440Z,17
2018-02-25T03:52:20.008Z,17
2018-02-25T03:53:18.600Z,17
2018-02-25T03:54:17.154Z,17
2018-02-25T03:55:15.857Z,17
2018-02-25T03:56:14.403Z,17
2018-02-25T03:57:13.080Z,17
2018-02-25T03:58:11.550Z,17
2018-02-25T03:59:10.127Z,17
2018-02-25T04:00:08.800Z,17
2018-02-25T04:01:07.372Z,17
2018-02-25T04:02:05.947Z,17
2018-02-25T04:03:04.518Z,17
2018-02-25T04:04:03.092Z,17
2018-02-25T04:05:01.686Z,16
2018-02-25T04:06:00.341Z,16
2018-02-25T04:06:58.930Z,16
2018-02-25T04:07:57.487Z,16
2018-02-25T04:08:56.061Z,16
2018-02-25T04:09:54.638Z,16
2018-02-25T04:10:53.204Z,16
2018-02-25T04:11:51.885Z,16
2018-02-25T04:12:50.455Z,16
2018-02-25T04:13:49.032Z,16
2018-02-25T04:14:47.605Z,16
2018-02-25T04:15:46.177Z,16
2018-02-25T04:16:44.748Z,16
2018-02-25T04:17:43.425Z,16
2018-02-25T04:18:41.998Z,16
2018-02-25T04:19:40.596Z,16
2018-02-25T04:20:39.144Z,16
2018-02-25T04:21:37.820Z,16
2018-02-25T04:22:36.290Z,16
2018-02-25T04:23:35.073Z,16
2018-02-25T04:24:33.540Z,16
2018-02-25T04:25:32.113Z,16
2018-02-25T04:26:30.687Z,16
2018-02-25T04:27:29.362Z,16
2018-02-25T04:28:27.831Z,16
2018-02-25T04:29:26.507Z,16
2018-02-25T04:30:25.185Z,16
2018-02-25T04:31:23.660Z,16
2018-02-25T04:32:22.228Z,16
2018-02-25T04:33:20.904Z,16
2018-02-25T04:34:19.373Z,16
2018-02-25T04:35:18.051Z,16
2018-02-25T04:36:16.624Z,16
2018-02-25T04:37:15.197Z,16
2018-02-25T04:38:13.873Z,16
2018-02-25T04:39:12.341Z,16
2018-02-25T04:40:11.018Z,16
2018-02-25T04:41:09.591Z,16
2018-02-25T04:42:08.167Z,16
2018-02-25T04:43:06.738Z,16
2018-02-25T04:44:05.313Z,16
2018-02-25T04:45:03.885Z,16
2018-02-25T04:46:02.562Z,16
2018-02-25T04:47:01.134Z,16
2018-02-25T04:47:59.724Z,16
2018-02-25T04:48:58.280Z,16
2018-02-25T04:49:56.855Z,16
2018-02-25T04:50:55.430Z,16
2018-02-25T04:51:54.120Z,16
2018-02-25T04:52:52.675Z,16
2018-02-25T04:53:51.251Z,16
2018-02-25T04:54:49.822Z,16
2018-02-25T04:55:48.397Z,16
2018-02-25T04:56:46.969Z,16
2018-02-25T04:57:45.643Z,16
2018-02-25T04:58:44.217Z,16
2018-02-25T04:59:42.790Z,16
2018-02-25T05:00:41.363Z,16
2018-02-25T05:01:39.936Z,16
2018-02-25T05:02:38.510Z,16
2018-02-25T05:03:37.186Z,16
2018-02-25T05:04:35.759Z,16
2018-02-25T05:05:34.331Z,16
2018-02-25T05:06:32.905Z,16
2018-02-25T05:07:31.478Z,16
2018-02-25T05:08:30.051Z,16
2018-02-25T05:09:28.836Z,16
2018-02-25T05:10:27.300Z,16
2018-02-25T05:11:25.873Z,16
2018-02-25T05:12:24.464Z,16
2018-02-25T05:13:23.021Z,16
2018-02-25T05:14:21.798Z,16
2018-02-25T05:15:20.373Z,16
2018-02-25T05:16:18.844Z,16
2018-02-25T05:17:17.415Z,16
2018-02-25T05:18:16.296Z,16
2018-02-25T05:19:14.776Z,16
2018-02-25T05:20:13.238Z,16
2018-02-25T05:21:11.811Z,16
2018-02-25T05:22:10.385Z,16
2018-02-25T05:23:08.956Z,16
2018-02-25T05:24:07.531Z,16
2018-02-25T05:25:06.104Z,16
2018-02-25T05:26:04.882Z,16
2018-02-25T05:27:03.353Z,16
2018-02-25T05:28:01.926Z,16
2018-02-25T05:29:00.498Z,16
2018-02-25T05:29:59.092Z,16
2018-02-25T05:30:57.646Z,16
2018-02-25T05:31:56.324Z,16
2018-02-25T05:32:55.013Z,16
2018-02-25T05:33:53.468Z,16
2018-02-25T05:34:52.042Z,16
2018-02-25T05:35:50.613Z,16
2018-02-25T05:36:49.187Z,16
2018-02-25T05:37:47.863Z,16
2018-02-25T05:38:46.436Z,16
2018-02-25T05:39:45.125Z,16
2018-02-25T05:40:43.582Z,16
2018-02-25T05:41:42.384Z,16
2018-02-25T05:42:40.832Z,16
2018-02-25T05:43:39.407Z,16
2018-02-25T05:44:38.080Z,16
2018-02-25T05:45:36.551Z,16
2018-02-25T05:46:35.124Z,16
2018-02-25T05:47:33.697Z,16
2018-02-25T05:48:32.373Z,16
2018-02-25T05:49:30.947Z,16
2018-02-25T05:50:29.540Z,16
2018-02-25T05:51:28.093Z,16
2018-02-25T05:52:26.665Z,16
2018-02-25T05:53:25.239Z,16
2018-02-25T05:54:23.915Z,16
2018-02-25T05:55:22.493Z,16
2018-02-25T05:56:21.080Z,16
2018-02-25T05:57:19.636Z,16
2018-02-25T05:58:18.208Z,16
2018-02-25T05:59:16.781Z,16
2018-02-25T06:00:15.460Z,16
2018-02-25T06:01:14.031Z,16
2018-02-25T06:02:12.604Z,16
2018-02-25T06:03:11.283Z,16
2018-02-25T06:04:09.751Z,16
2018-02-25T06:05:08.323Z,16
2018-02-25T06:06:06.999Z,16
2018-02-25T06:07:05.572Z,16
2018-02-25T06:08:04.146Z,16
2018-02-25T06:09:02.734Z,16
2018-02-25T06:10:01.291Z,16
2018-02-25T06:10:59.867Z,16
2018-02-25T06:11:58.541Z,16
2018-02-25T06:12:57.130Z,16
2018-02-25T06:13:55.694Z,16
2018-02-25T06:14:54.261Z,16
2018-02-25T06:15:52.834Z,16
2018-02-25T06:16:51.510Z,16
2018-02-25T06:17:50.084Z,16
2018-02-25T06:18:48.656Z,16
2018-02-25T06:19:47.231Z,16
2018-02-25T06:20:45.804Z,16
2018-02-25T06:21:44.378Z,16
2018-02-25T06:22:43.051Z,16
2018-02-25T06:23:41.624Z,16
2018-02-25T06:24:40.199Z,16
2018-02-25T06:25:38.770Z,16
2018-02-25T06:26:37.344Z,16
2018-02-25T06:27:35.936Z,16
2018-02-25T06:28:34.593Z,17
2018-02-25T06:29:33.181Z,17
2018-02-25T06:30:31.740Z,17
2018-02-25T06:31:30.311Z,17
2018-02-25T06:32:28.884Z,17
2018-02-25T06:33:27.479Z,17
2018-02-25T06:34:26.135Z,17
2018-02-25T06:35:24.707Z,17
2018-02-25T06:36:23.281Z,17
2018-02-25T06:37:21.854Z,17
2018-02-25T06:38:20.428Z,17
2018-02-25T06:39:19.001Z,17
2018-02-25T06:40:17.679Z,17
2018-02-25T06:41:16.249Z,17
2018-02-25T06:42:14.822Z,17
2018-02-25T06:43:13.396Z,17
2018-02-25T06:44:11.972Z,17
2018-02-25T06:45:10.543Z,17
2018-02-25T06:46:09.220Z,17
2018-02-25T06:47:07.791Z,17
2018-02-25T06:48:06.364Z,17
2018-02-25T06:49:04.939Z,17
2018-02-25T06:50:03.510Z,17
2018-02-25T06:51:02.098Z,17
2018-02-25T06:52:00.760Z,17
2018-02-25T06:52:59.334Z,17
2018-02-25T06:53:57.906Z,17
2018-02-25T06:54:56.480Z,17
2018-02-25T06:55:55.155Z,17
2018-02-25T06:56:53.624Z,17
2018-02-25T06:57:52.324Z,17
2018-02-25T06:58:50.875Z,17
2018-02-25T06:59:49.448Z,17
2018-02-25T07:00:48.022Z,17
2018-02-25T07:01:46.594Z,17
2018-02-25T07:02:45.270Z,17
2018-02-25T07:03:43.844Z,17
2018-02-25T07:04:42.416Z,17
2018-02-25T07:05:40.990Z,17
2018-02-25T07:06:39.562Z,17
2018-02-25T07:07:38.135Z,17
2018-02-25T07:08:36.812Z,17
2018-02-25T07:09:35.504Z,18
2018-02-25T07:10:33.969Z,18
2018-02-25T07:11:32.531Z,18
2018-02-25T07:12:31.105Z,18
2018-02-25T07:13:29.679Z,18
2018-02-25T07:14:28.355Z,18
2018-02-25T07:15:27.030Z,18
2018-02-25T07:16:25.499Z,18
2018-02-25T07:17:24.073Z,18
2018-02-25T07:18:22.646Z,18
2018-02-25T07:19:21.221Z,18
2018-02-25T07:20:19.896Z,18
2018-02-25T07:21:18.483Z,18
2018-02-25T07:22:17.144Z,18
2018-02-25T07:23:15.615Z,18
2018-02-25T07:24:14.188Z,18
2018-02-25T07:25:12.764Z,18
2018-02-25T07:26:11.438Z,18
2018-02-25T07:27:10.010Z,18
2018-02-25T07:28:08.585Z,18
2018-02-25T07:29:07.157Z,18
2018-02-25T07:30:05.731Z,18
2018-02-25T07:31:04.327Z,18
2018-02-25T07:32:02.980Z,18
2018-02-25T07:33:01.553Z,18
2018-02-25T07:34:00.127Z,18
2018-02-25T07:34:58.700Z,18
2018-02-25T07:35:57.271Z,18
2018-02-25T07:36:56.051Z,18
2018-02-25T07:37:54.523Z,18
2018-02-25T07:38:53.123Z,18
2018-02-25T07:39:51.771Z,18
2018-02-25T07:40:50.346Z,18
2018-02-25T07:41:48.814Z,18
2018-02-25T07:42:47.492Z,18
2018-02-25T07:43:46.063Z,18
2018-02-25T07:44:44.635Z,18
2018-02-25T07:45:43.233Z,18
2018-02-25T07:46:41.782Z,18
2018-02-25T07:47:40.357Z,18
2018-02-25T07:48:39.133Z,18
2018-02-25T07:49:37.606Z,18
2018-02-25T07:50:36.178Z,19
2018-02-25T07:51:34.751Z,19
2018-02-25T07:52:33.324Z,19
2018-02-25T07:53:31.897Z,19
2018-02-25T07:54:30.983Z,19
2018-02-25T07:55:29.145Z,19
2018-02-25T07:56:27.720Z,19
2018-02-25T07:57:26.293Z,19
2018-02-25T07:58:24.866Z,19
2018-02-25T07:59:23.442Z,19
2018-02-25T08:00:22.115Z,19
2018-02-25T08:01:20.689Z,19
2018-02-25T08:02:19.261Z,19
2018-02-25T08:03:17.851Z,19
2018-02-25T08:04:16.408Z,19
2018-02-25T08:05:14.981Z,19
2018-02-25T08:06:13.674Z,19
2018-02-25T08:07:12.230Z,19
2018-02-25T08:08:10.821Z,19
2018-02-25T08:09:09.376Z,19
2018-02-25T08:10:07.972Z,19
2018-02-25T08:11:06.522Z,19
2018-02-25T08:12:05.199Z,19
2018-02-25T08:13:03.826Z,19
2018-02-25T08:14:02.345Z,19
2018-02-25T08:15:00.944Z,19
2018-02-25T08:15:59.492Z,19
2018-02-25T08:16:58.168Z,19
2018-02-25T08:17:56.743Z,19
2018-02-25T08:18:55.318Z,19
2018-02-25T08:19:53.903Z,19
2018-02-25T08:20:52.469Z,19
2018-02-25T08:21:51.033Z,20
2018-02-25T08:22:49.728Z,20
2018-02-25T08:23:48.283Z,20
2018-02-25T08:24:46.958Z,20
2018-02-25T08:25:45.429Z,20
2018-02-25T08:26:44.003Z,20
2018-02-25T08:27:42.593Z,20
2018-02-25T08:28:41.250Z,20
2018-02-25T08:29:39.840Z,20
2018-02-25T08:30:38.397Z,20
2018-02-25T08:31:36.970Z,20
2018-02-25T08:32:35.545Z,20
2018-02-25T08:33:34.117Z,20
2018-02-25T08:34:32.815Z,20
2018-02-25T08:35:31.392Z,20
2018-02-25T08:36:29.942Z,20
2018-02-25T08:37:28.513Z,20
2018-02-25T08:38:27.085Z,20
2018-02-25T08:39:25.658Z,20
2018-02-25T08:40:24.334Z,20
2018-02-25T08:41:22.924Z,20
2018-02-25T08:42:21.687Z,20
2018-02-25T08:43:20.080Z,20
2018-02-25T08:44:18.734Z,21
2018-02-25T08:45:17.200Z,21
2018-02-25T08:46:15.876Z,21
2018-02-25T08:47:14.452Z,21
2018-02-25T08:48:13.023Z,21
2018-02-25T08:49:11.595Z,21
2018-02-25T08:50:10.194Z,21
2018-02-25T08:51:08.745Z,21
2018-02-25T08:52:07.419Z,21
2018-02-25T08:53:06.231Z,21
2018-02-25T08:54:04.566Z,21
2018-02-25T08:55:03.152Z,21
2018-02-25T08:56:01.711Z,21
2018-02-25T08:57:00.404Z,21
2018-02-25T08:57:58.961Z,21
2018-02-25T08:58:57.534Z,21
2018-02-25T08:59:56.109Z,21
2018-02-25T09:00:54.679Z,21
2018-02-25T09:01:53.254Z,21
2018-02-25T09:02:51.930Z,21
2018-02-25T09:03:50.502Z,21
2018-02-25T09:04:49.076Z,22
2018-02-25T09:05:47.653Z,22
2018-02-25T09:06:46.220Z,22
2018-02-25T09:07:44.796Z,22
2018-02-25T09:08:43.487Z,22
2018-02-25T09:09:42.043Z,22
2018-02-25T09:10:40.616Z,22
2018-02-25T09:11:39.190Z,22
2018-02-25T09:12:37.772Z,22
2018-02-25T09:13:36.356Z,22
2018-02-25T09:14:35.012Z,22
2018-02-25T09:15:33.585Z,22
2018-02-25T09:16:32.159Z,22
2018-02-25T09:17:30.732Z,22
2018-02-25T09:18:29.307Z,22
2018-02-25T09:19:27.981Z,22
2018-02-25T09:20:26.557Z,22
2018-02-25T09:21:25.131Z,22
2018-02-25T09:22:23.701Z,22
2018-02-25T09:23:22.276Z,22
2018-02-25T09:24:20.949Z,22
2018-02-25T09:25:19.423Z,22
2018-02-25T09:26:18.097Z,22
2018-02-25T09:27:16.688Z,22
2018-02-25T09:28:15.242Z,22
2018-02-25T09:29:13.816Z,22
2018-02-25T09:30:12.390Z,22
2018-02-25T09:31:10.961Z,22
2018-02-25T09:32:09.637Z,23
2018-02-25T09:33:08.214Z,23
2018-02-25T09:34:06.787Z,23
2018-02-25T09:35:05.377Z,23
2018-02-25T09:36:04.050Z,23
2018-02-25T09:37:02.611Z,23
2018-02-25T09:38:01.179Z,23
2018-02-25T09:38:59.768Z,23
2018-02-25T09:39:58.326Z,23
2018-02-25T09:40:56.899Z,23
2018-02-25T09:41:55.678Z,23
2018-02-25T09:42:54.148Z,23
2018-02-25T09:43:52.721Z,23
2018-02-25T09:44:51.294Z,23
2018-02-25T09:45:50.175Z,24
2018-02-25T09:46:48.440Z,24
2018-02-25T09:47:47.013Z,24
2018-02-25T09:48:45.714Z,24
2018-02-25T09:49:44.365Z,24
2018-02-25T09:50:42.836Z,23
2018-02-25T09:51:41.409Z,23
2018-02-25T09:52:39.984Z,23
2018-02-25T09:53:38.557Z,24
2018-02-25T09:54:37.230Z,24
2018-02-25T09:55:35.817Z,24
2018-02-25T09:56:34.377Z,24
2018-02-25T09:57:32.951Z,24
2018-02-25T09:58:31.645Z,24
2018-02-25T09:59:30.097Z,24
2018-02-25T10:00:28.773Z,24
2018-02-25T10:01:27.347Z,24
2018-02-25T10:02:25.924Z,24
2018-02-25T10:03:24.509Z,24
2018-02-25T10:04:23.081Z,24
2018-02-25T10:05:21.743Z,24
2018-02-25T10:06:20.315Z,24
2018-02-25T10:07:18.991Z,24
2018-02-25T10:08:17.461Z,24
2018-02-25T10:09:16.034Z,24
2018-02-25T10:10:14.630Z,25
2018-02-25T10:11:13.180Z,25
2018-02-25T10:12:11.876Z,25
2018-02-25T10:13:10.457Z,25
2018-02-25T10:14:09.003Z,26
2018-02-25T10:15:07.576Z,26
2018-02-25T10:16:06.149Z,26
2018-02-25T10:17:04.825Z,26
2018-02-25T10:18:03.500Z,25
2018-02-25T10:19:01.999Z,25
2018-02-25T10:20:00.545Z,25
2018-02-25T10:20:59.118Z,26
2018-02-25T10:21:57.759Z,26
2018-02-25T10:22:56.368Z,27
2018-02-25T10:23:54.940Z,27
2018-02-25T10:24:53.515Z,27
2018-02-25T10:25:52.087Z,27
2018-02-25T10:26:50.659Z,27
2018-02-25T10:27:49.231Z,27
2018-02-25T10:28:47.911Z,27
2018-02-25T10:29:46.501Z,27
2018-02-25T10:30:45.055Z,26
2018-02-25T10:31:43.627Z,26
2018-02-25T10:32:42.205Z,26
2018-02-25T10:33:40.792Z,26
2018-02-25T10:34:39.454Z,26
2018-02-25T10:35:38.024Z,25
2018-02-25T10:36:36.615Z,25
2018-02-25T10:37:35.171Z,25
2018-02-25T10:38:33.845Z,25
2018-02-25T10:39:32.316Z,25
2018-02-25T10:40:30.993Z,25
2018-02-25T10:41:29.565Z,25
2018-02-25T10:42:28.146Z,25
2018-02-25T10:43:26.735Z,25
2018-02-25T10:44:25.301Z,25
2018-02-25T10:45:23.859Z,25
2018-02-25T10:46:22.537Z,25
2018-02-25T10:47:21.704Z,25
2018-02-25T10:48:19.681Z,25
2018-02-25T10:49:18.257Z,25
2018-02-25T10:50:16.930Z,25
2018-02-25T10:51:15.504Z,25
2018-02-25T10:52:14.092Z,25
2018-02-25T10:53:12.649Z,25
2018-02-25T10:54:11.224Z,25
2018-02-25T10:55:09.796Z,25
2018-02-25T10:56:08.479Z,25
2018-02-25T10:57:07.043Z,25
2018-02-25T10:58:05.630Z,25
2018-02-25T10:59:04.191Z,25
2018-02-25T11:00:02.764Z,24
2018-02-25T11:01:01.560Z,24
2018-02-25T11:01:59.909Z,24
2018-02-25T11:02:58.586Z,24
2018-02-25T11:03:57.262Z,24
2018-02-25T11:04:55.732Z,24
2018-02-25T11:05:54.409Z,25
2018-02-25T11:06:52.879Z,25
2018-02-25T11:07:51.451Z,25
2018-02-25T11:08:50.129Z,25
2018-02-25T11:09:48.701Z,25
2018-02-25T11:10:47.274Z,25
2018-02-25T11:11:45.850Z,25
2018-02-25T11:12:44.420Z,25
2018-02-25T11:13:42.993Z,25
2018-02-25T11:14:41.669Z,25
2018-02-25T11:15:40.259Z,25
2018-02-25T11:16:38.818Z,26
2018-02-25T11:17:37.406Z,26
2018-02-25T11:18:35.963Z,26
2018-02-25T11:19:34.535Z,26
2018-02-25T11:20:33.212Z,26
2018-02-25T11:21:31.792Z,26
2018-02-25T11:22:30.357Z,26
2018-02-25T11:23:28.932Z,26
2018-02-25T11:24:27.523Z,26
2018-02-25T11:25:26.081Z,26
2018-02-25T11:26:24.773Z,26
2018-02-25T11:27:23.327Z,26
2018-02-25T11:28:22.019Z,26
2018-02-25T11:29:20.473Z,26
2018-02-25T11:30:19.056Z,26
2018-02-25T11:31:17.643Z,26
2018-02-25T11:32:16.295Z,26
2018-02-25T11:33:14.869Z,26
2018-02-25T11:34:13.442Z,26
2018-02-25T11:35:12.126Z,26
2018-02-25T11:36:10.604Z,26
2018-02-25T11:37:09.264Z,26
2018-02-25T11:38:07.837Z,26
2018-02-25T11:39:06.410Z,26
2018-02-25T11:40:04.998Z,26
2018-02-25T11:41:03.555Z,27
2018-02-25T11:42:02.130Z,27
2018-02-25T11:43:00.814Z,27
2018-02-25T11:43:59.379Z,27
2018-02-25T11:44:57.952Z,27
2018-02-25T11:45:56.524Z,27
2018-02-25T11:46:55.098Z,27
2018-02-25T11:47:53.675Z,27
2018-02-25T11:48:52.348Z,27
2018-02-25T11:49:51.025Z,27
2018-02-25T11:50:49.496Z,27
2018-02-25T11:51:48.069Z,27
2018-02-25T11:52:46.640Z,27
2018-02-25T11:53:45.215Z,27
2018-02-25T11:54:43.991Z,28
2018-02-25T11:55:42.463Z,28
2018-02-25T11:56:41.036Z,28
2018-02-25T11:57:39.624Z,28
2018-02-25T11:58:38.181Z,28
2018-02-25T11:59:36.756Z,28
2018-02-25T12:00:35.449Z,28
2018-02-25T12:01:34.005Z,28
2018-02-25T12:02:32.595Z,28
2018-02-25T12:03:31.160Z,28
2018-02-25T12:04:29.724Z,28
2018-02-25T12:05:28.399Z,28
2018-02-25T12:06:26.989Z,28
2018-02-25T12:07:25.545Z,29
2018-02-25T12:08:24.119Z,29
2018-02-25T12:09:22.692Z,29
2018-02-25T12:10:21.264Z,29
2018-02-25T12:11:19.942Z,29
2018-02-25T12:12:18.518Z,29
2018-02-25T12:13:17.088Z,29
2018-02-25T12:14:15.685Z,29
2018-02-25T12:15:14.298Z,29
2018-02-25T12:16:12.807Z,29
2018-02-25T12:17:11.483Z,29
2018-02-25T12:18:10.057Z,29
2018-02-25T12:19:08.629Z,29
2018-02-25T12:20:07.414Z,29
2018-02-25T12:21:05.775Z,29
2018-02-25T12:22:04.376Z,29
2018-02-25T12:23:03.025Z,29
2018-02-25T12:24:01.599Z,29
2018-02-25T12:25:00.171Z,29
2018-02-25T12:25:58.744Z,29
2018-02-25T12:26:57.317Z,29
2018-02-25T12:27:55.908Z,29
2018-02-25T12:28:54.571Z,29
2018-02-25T12:29:53.148Z,28
2018-02-25T12:30:51.728Z,28
2018-02-25T12:31:50.289Z,28
2018-02-25T12:32:48.961Z,28
2018-02-25T12:33:47.537Z,28
2018-02-25T12:34:46.110Z,28
2018-02-25T12:35:44.784Z,29
2018-02-25T12:36:43.256Z,29
2018-02-25T12:37:41.828Z,29
2018-02-25T12:38:40.503Z,29
2018-02-25T12:39:39.077Z,29
2018-02-25T12:40:37.667Z,29
2018-02-25T12:41:36.225Z,29
2018-02-25T12:42:34.796Z,29
2018-02-25T12:43:33.368Z,29
2018-02-25T12:44:31.943Z,29
2018-02-25T12:45:30.619Z,29
2018-02-25T12:46:29.192Z,29
2018-02-25T12:47:27.764Z,28
2018-02-25T12:48:26.440Z,28
2018-02-25T12:49:25.021Z,28
2018-02-25T12:50:23.512Z,28
2018-02-25T12:51:22.161Z,27
2018-02-25T12:52:20.758Z,27
2018-02-25T12:53:19.305Z,27
2018-02-25T12:54:17.880Z,27
2018-02-25T12:55:16.452Z,27
2018-02-25T12:56:15.131Z,27
2018-02-25T12:57:13.752Z,26
2018-02-25T12:58:12.306Z,26
2018-02-25T12:59:10.956Z,26
2018-02-25T13:00:09.422Z,26
2018-02-25T13:01:08.116Z,26
2018-02-25T13:02:06.568Z,26
2018-02-25T13:03:05.244Z,26
2018-02-25T13:04:03.819Z,26
2018-02-25T13:05:02.395Z,26
2018-02-25T13:06:00.963Z,26
2018-02-25T13:06:59.536Z,26
2018-02-25T13:07:58.218Z,26
2018-02-25T13:08:56.787Z,26
2018-02-25T13:09:55.358Z,26
2018-02-25T13:10:53.937Z,25
2018-02-25T13:11:52.510Z,25
2018-02-25T13:12:51.180Z,25
2018-02-25T13:13:49.774Z,25
2018-02-25T13:14:48.327Z,25
2018-02-25T13:15:46.908Z,25
2018-02-25T13:16:45.577Z,25
2018-02-25T13:17:44.047Z,25
2018-02-25T13:18:42.619Z,25
2018-02-25T13:19:41.295Z,25
2018-02-25T13:20:39.869Z,25
2018-02-25T13:21:38.442Z,25
2018-02-25T13:22:37.031Z,25
2018-02-25T13:23:35.588Z,25
2018-02-25T13:24:34.164Z,25
2018-02-25T13:25:32.841Z,25
2018-02-25T13:26:31.432Z,25
2018-02-25T13:27:29.984Z,25
2018-02-25T13:28:28.558Z,25
2018-02-25T13:29:27.149Z,25
2018-02-25T13:30:25.727Z,25
2018-02-25T13:31:24.380Z,25
2018-02-25T13:32:22.953Z,25
2018-02-25T13:33:21.526Z,25
2018-02-25T13:34:20.130Z,25
2018-02-25T13:35:18.671Z,25
2018-02-25T13:36:17.246Z,25
2018-02-25T13:37:15.921Z,25
2018-02-25T13:38:14.495Z,25
2018-02-25T13:39:13.067Z,25
2018-02-25T13:40:11.641Z,25
2018-02-25T13:41:10.214Z,25
2018-02-25T13:42:08.810Z,25
2018-02-25T13:43:07.676Z,25
2018-02-25T13:44:06.056Z,25
2018-02-25T13:45:04.610Z,25
2018-02-25T13:46:03.182Z,25
2018-02-25T13:47:01.758Z,25
2018-02-25T13:48:00.329Z,25
2018-02-25T13:48:59.010Z,24
2018-02-25T13:49:57.580Z,24
2018-02-25T13:50:56.155Z,24
2018-02-25T13:51:54.723Z,24
2018-02-25T13:52:53.521Z,24
2018-02-25T13:53:51.973Z,24
2018-02-25T13:54:50.668Z,24
2018-02-25T13:55:49.122Z,24